Time;durP1;ratioP1;P1;durP2;ratioP2;P2;SDS_P1;SDS_P2;PMS_P1;PMS_P2;Temp;Humidity;BMP_temperature;BMP_pressure;BME280_temperature;BME280_humidity;BME280_pressure;Samples;Min_cycle;Max_cycle;Signal;HPM_P1;HPM_P2
2023/06/19 04:04:30;;;;;;;10.40;9.15;;;;;;;18.75;75.54;100460.53;5605836;31;79025;-56
2023/06/19 04:07:33;;;;;;;11.90;9.38;;;;;;;18.75;75.54;100460.53;5602146;31;33331;-55
2023/06/19 04:10:35;;;;;;;11.60;9.50;;;;;;;18.38;73.64;100465.75;5603140;31;33537;-56
2023/06/19 04:13:38;;;;;;;12.70;9.60;;;;;;;18.54;73.35;100469.47;5602917;31;34344;-55
2023/06/19 04:16:40;;;;;;;12.75;9.63;;;;;;;18.59;76.08;100465.75;5603103;31;34368;-56
2023/06/19 04:19:44;;;;;;;13.40;9.27;;;;;;;18.51;78.67;100467.41;5602186;31;34353;-56
2023/06/19 04:22:46;;;;;;;11.18;9.27;;;;;;;18.62;75.23;100467.78;5594358;31;34150;-57
2023/06/19 04:25:49;;;;;;;11.73;9.32;;;;;;;18.81;76.67;100467.34;5599895;31;33185;-56
2023/06/19 04:28:52;;;;;;;12.40;9.45;;;;;;;18.91;76.48;100466.16;5588505;31;33577;-56
2023/06/19 04:31:54;;;;;;;17.35;8.57;;;;;;;18.91;75.09;100471.59;5601168;31;33647;-56
2023/06/19 04:34:57;;;;;;;13.05;9.65;;;;;;;18.99;77.66;100470.69;5601162;31;34025;-55
2023/06/19 04:38:01;;;;;;;10.35;9.25;;;;;;;19.06;75.77;100467.44;5602816;31;33155;-55
2023/06/19 04:41:03;;;;;;;11.98;8.77;;;;;;;19.17;75.00;100460.44;5601710;31;34177;-57
2023/06/19 04:44:06;;;;;;;11.02;8.80;;;;;;;19.22;77.16;100471.88;5601709;31;34364;-55
2023/06/19 04:47:08;;;;;;;14.43;9.30;;;;;;;19.19;81.47;100474.50;5590981;31;34335;-56
2023/06/19 04:50:10;;;;;;;9.93;8.52;;;;;;;19.30;75.04;100466.69;5593470;31;34343;-57
2023/06/19 04:53:13;;;;;;;11.50;8.82;;;;;;;19.43;76.07;100476.47;5582996;31;33612;-56
2023/06/19 04:56:15;;;;;;;12.88;9.35;;;;;;;19.50;74.83;100476.69;5581368;32;33615;-57
2023/06/19 04:59:20;;;;;;;12.68;9.25;;;;;;;19.54;74.46;100472.19;5563263;32;34265;-56
2023/06/19 05:02:23;;;;;;;11.27;8.82;;;;;;;19.64;76.57;100476.41;5562538;32;33488;-56
2023/06/19 05:05:28;;;;;;;11.77;9.10;;;;;;;19.67;73.40;100475.75;5568688;32;33590;-56
2023/06/19 05:08:30;;;;;;;10.50;8.63;;;;;;;19.75;74.62;100482.19;5582282;31;33688;-56
2023/06/19 05:11:32;;;;;;;12.73;9.20;;;;;;;19.74;75.12;100486.84;5581947;32;33942;-55
2023/06/19 05:14:35;;;;;;;13.02;9.20;;;;;;;19.77;75.61;100488.91;5571400;32;34226;-56
2023/06/19 05:17:38;;;;;;;14.20;9.43;;;;;;;19.91;76.46;100492.06;5568424;32;34197;-56
2023/06/19 05:20:41;;;;;;;11.77;9.63;;;;;;;20.08;73.10;100493.75;5568579;32;33568;-56
2023/06/19 05:23:43;;;;;;;14.05;9.20;;;;;;;20.26;69.53;100505.19;5569003;32;33758;-55
2023/06/19 05:26:46;;;;;;;11.48;9.30;;;;;;;20.41;69.91;100493.59;5568263;32;33761;-55
2023/06/19 05:29:48;;;;;;;12.07;8.40;;;;;;;20.65;67.10;100498.22;5569362;32;33687;-57
2023/06/19 05:32:52;;;;;;;10.80;8.35;;;;;;;20.85;68.73;100498.37;5569381;32;33582;-57
2023/06/19 05:35:54;;;;;;;14.40;9.68;;;;;;;20.99;69.29;100501.53;5568027;32;34349;-56
2023/06/19 05:38:56;;;;;;;10.65;9.38;;;;;;;21.07;65.51;100500.56;5569512;32;33542;-56
2023/06/19 05:41:59;;;;;;;14.65;9.10;;;;;;;21.18;64.55;100500.06;5569037;32;33627;-56
2023/06/19 05:45:02;;;;;;;14.80;9.00;;;;;;;21.31;62.61;100501.56;5568910;32;33473;-55
2023/06/19 05:48:05;;;;;;;20.52;9.73;;;;;;;21.37;68.88;100496.69;5567414;32;33554;-58
2023/06/19 05:51:09;;;;;;;13.25;9.52;;;;;;;21.57;66.24;100498.37;5568370;32;33705;-56
2023/06/19 05:54:11;;;;;;;14.50;8.73;;;;;;;21.68;62.37;100502.16;5568700;32;34770;-56
2023/06/19 05:57:16;;;;;;;13.68;9.07;;;;;;;21.75;64.79;100505.06;5568980;32;33493;-56
2023/06/19 06:00:19;;;;;;;15.65;9.20;;;;;;;21.92;59.81;100508.56;5568052;32;33549;-56
2023/06/19 06:03:21;;;;;;;15.77;9.40;;;;;;;21.97;59.66;100511.03;5568561;32;33700;-56
2023/06/19 06:06:24;;;;;;;12.63;9.73;;;;;;;21.96;62.38;100509.47;5565034;32;32168;-55
2023/06/19 06:09:27;;;;;;;13.73;10.50;;;;;;;22.08;60.06;100519.47;5567306;32;34335;-56
2023/06/19 06:12:30;;;;;;;14.50;9.65;;;;;;;22.17;58.85;100520.91;5564878;32;34366;-56
2023/06/19 06:15:32;;;;;;;20.25;9.60;;;;;;;22.25;60.01;100517.19;5566521;32;33724;-58
2023/06/19 06:18:34;;;;;;;12.57;8.65;;;;;;;22.36;60.07;100520.16;5556032;32;34060;-58
2023/06/19 06:21:37;;;;;;;20.88;10.18;;;;;;;22.45;58.94;100517.22;5565149;32;33654;-57
2023/06/19 06:24:40;;;;;;;15.57;9.35;;;;;;;22.50;60.10;100520.47;5567109;32;33559;-57
2023/06/19 06:27:44;;;;;;;13.35;9.77;;;;;;;22.57;58.18;100521.78;5566525;32;32957;-58
2023/06/19 06:30:46;;;;;;;21.83;9.27;;;;;;;22.63;58.73;100525.81;5567771;32;33632;-57
2023/06/19 06:33:49;;;;;;;18.48;9.50;;;;;;;22.68;59.20;100523.59;5567316;32;34218;-57
2023/06/19 06:36:51;;;;;;;11.20;8.45;;;;;;;22.64;59.13;100516.47;5568017;32;33668;-58
2023/06/19 06:40:14;;;;;;;14.60;8.73;;;;;;;22.88;60.57;100527.12;5568115;32;33665;-58
2023/06/19 06:43:17;;;;;;;11.82;8.95;;;;;;;22.91;58.72;100525.59;5568215;32;34264;-58
2023/06/19 06:46:20;;;;;;;13.23;9.77;;;;;;;23.08;59.04;100527.94;5568284;32;33682;-58
2023/06/19 06:49:23;;;;;;;12.68;8.60;;;;;;;23.12;55.59;100530.75;5568731;32;34234;-57
2023/06/19 06:52:26;;;;;;;11.75;8.68;;;;;;;23.24;61.04;100524.31;5568127;31;33361;-58
2023/06/19 06:55:28;;;;;;;12.50;9.70;;;;;;;23.31;57.82;100524.44;5567831;32;33630;-57
2023/06/19 06:58:30;;;;;;;15.88;9.98;;;;;;;23.43;55.91;100522.31;5567750;32;33614;-57
2023/06/19 07:01:35;;;;;;;12.37;8.70;;;;;;;23.51;56.12;100523.25;5567750;32;33522;-57
2023/06/19 07:04:38;;;;;;;12.85;8.85;;;;;;;23.53;57.12;100523.66;5567595;32;34142;-57
2023/06/19 07:07:41;;;;;;;10.15;7.53;;;;;;;23.68;56.73;100528.28;5568048;32;34236;-57
2023/06/19 07:10:44;;;;;;;15.63;8.75;;;;;;;23.83;54.86;100532.03;5568351;32;33437;-59
2023/06/19 07:13:47;;;;;;;7.75;6.93;;;;;;;23.90;55.22;100531.34;5550475;32;34369;-57
2023/06/19 07:16:50;;;;;;;12.57;8.02;;;;;;;23.89;54.73;100529.78;5566085;32;33724;-57
2023/06/19 07:19:52;;;;;;;10.13;8.15;;;;;;;23.97;54.48;100520.50;5568003;32;33787;-58
2023/06/19 07:22:55;;;;;;;12.37;8.20;;;;;;;24.06;53.60;100523.78;5567753;32;34268;-54
2023/06/19 07:25:57;;;;;;;19.90;8.65;;;;;;;24.16;53.70;100525.09;5567505;32;34317;-54
2023/06/19 07:28:59;;;;;;;10.68;8.45;;;;;;;24.16;52.02;100522.38;5567433;32;33203;-55
2023/06/19 07:32:03;;;;;;;10.75;7.50;;;;;;;24.24;53.48;100513.09;5566907;32;33604;-55
2023/06/19 07:35:07;;;;;;;16.20;9.33;;;;;;;24.29;53.84;100514.72;5567860;32;33806;-55
2023/06/19 07:38:11;;;;;;;19.45;8.25;;;;;;;24.28;53.07;100521.38;5565347;32;33619;-55
2023/06/19 07:41:15;;;;;;;11.07;7.70;;;;;;;24.33;53.19;100521.03;5565944;32;33516;-54
2023/06/19 07:44:20;;;;;;;20.73;8.30;;;;;;;24.34;52.77;100517.16;5567925;32;33598;-55
2023/06/19 07:47:23;;;;;;;16.55;8.90;;;;;;;24.30;54.35;100517.09;5567286;32;34236;-54
2023/06/19 07:50:25;;;;;;;13.77;7.85;;;;;;;24.27;53.44;100514.28;5567382;32;34853;-54
2023/06/19 07:53:29;;;;;;;12.02;8.32;;;;;;;24.28;53.83;100508.47;5567149;32;33617;-55
2023/06/19 07:56:33;;;;;;;13.35;8.15;;;;;;;24.42;53.28;100512.59;5567728;32;33576;-55
2023/06/19 07:59:35;;;;;;;19.80;8.63;;;;;;;24.53;53.24;100513.50;5567970;32;33547;-55
2023/06/19 08:02:41;;;;;;;19.87;8.30;;;;;;;24.58;52.99;100499.50;5566120;32;33661;-54
2023/06/19 08:05:44;;;;;;;9.65;8.00;;;;;;;24.67;51.77;100504.66;5566648;32;33651;-56
2023/06/19 08:08:46;;;;;;;11.93;7.80;;;;;;;24.81;51.66;100511.13;5566675;32;33801;-55
2023/06/19 08:11:49;;;;;;;11.50;7.57;;;;;;;24.66;50.00;100501.16;5547680;32;33568;-54
2023/06/19 08:14:51;;;;;;;14.63;8.00;;;;;;;24.45;51.47;100498.94;5547453;32;34318;-55
2023/06/19 08:17:53;;;;;;;11.07;7.57;;;;;;;24.36;52.99;100504.66;5552943;32;33596;-54
2023/06/19 08:20:56;;;;;;;24.23;8.85;;;;;;;24.37;53.77;100510.91;5563503;32;33513;-55
2023/06/19 08:23:58;;;;;;;13.23;7.72;;;;;;;24.33;52.97;100512.81;5566536;32;34434;-55
2023/06/19 08:27:01;;;;;;;12.85;8.27;;;;;;;24.32;53.29;100503.81;5565130;32;33617;-54
2023/06/19 08:30:04;;;;;;;16.20;7.68;;;;;;;24.46;53.25;100502.47;5564242;32;33626;-55
2023/06/19 08:33:06;;;;;;;19.62;8.23;;;;;;;24.62;53.80;100500.31;5562846;32;34035;-56
2023/06/19 08:36:09;;;;;;;14.30;7.47;;;;;;;24.82;52.70;100498.22;5563139;32;33604;-56
2023/06/19 08:39:11;;;;;;;14.48;7.32;;;;;;;24.96;51.42;100498.37;5567401;32;33816;-56
2023/06/19 08:42:13;;;;;;;10.45;7.95;;;;;;;25.11;50.05;100506.78;5566893;32;33779;-56
2023/06/19 08:45:18;;;;;;;9.10;6.90;;;;;;;25.25;49.60;100501.44;5566582;32;33642;-56
2023/06/19 08:48:21;;;;;;;12.02;6.85;;;;;;;25.22;49.27;100500.25;5566624;32;34171;-56
2023/06/19 08:51:23;;;;;;;11.70;7.18;;;;;;;25.32;49.21;100504.25;5568047;31;33588;-56
2023/06/19 08:54:25;;;;;;;14.87;7.20;;;;;;;25.35;48.74;100500.75;5567519;32;33645;-56
2023/06/19 08:57:39;;;;;;;10.85;6.90;;;;;;;25.35;48.95;100497.22;5569968;32;33594;-56
2023/06/19 09:00:47;;;;;;;11.12;7.50;;;;;;;25.43;49.03;100498.88;5569557;31;32311;-56
2023/06/19 09:03:52;;;;;;;13.45;7.18;;;;;;;25.61;47.64;100491.59;5568545;32;33249;-56
2023/06/19 09:07:00;;;;;;;17.52;6.97;;;;;;;25.66;47.04;100491.25;5564332;32;34273;-56
2023/06/19 09:10:17;;;;;;;11.20;7.10;;;;;;;25.61;48.14;100486.09;5566116;31;32836;-56
2023/06/19 09:13:20;;;;;;;10.13;7.30;;;;;;;25.74;46.02;100481.88;5562648;32;33981;-56
2023/06/19 09:16:24;;;;;;;11.50;6.55;;;;;;;25.80;48.30;100482.34;5568741;32;33815;-56
2023/06/19 09:19:26;;;;;;;9.75;7.35;;;;;;;25.81;47.52;100486.66;5568600;32;33832;-56
2023/06/19 09:22:29;;;;;;;11.25;6.45;;;;;;;25.84;46.03;100490.63;5564851;32;33645;-56
2023/06/19 09:25:43;;;;;;;;;;;;;;;25.80;46.66;100484.28;5569755;32;33552;-56
2023/06/19 09:28:46;;;;;;;20.52;7.20;;;;;;;25.85;46.38;100486.69;5569468;32;34056;-56
2023/06/19 09:31:48;;;;;;;16.98;7.10;;;;;;;25.80;47.32;100487.84;5569028;32;33280;-56
2023/06/19 09:34:52;;;;;;;10.18;7.30;;;;;;;25.85;48.21;100486.69;5568235;32;33688;-58
2023/06/19 09:37:56;;;;;;;10.52;6.68;;;;;;;25.82;46.94;100488.25;5568919;32;34327;-58
2023/06/19 09:41:02;;;;;;;63.38;11.02;;;;;;;25.92;47.71;100479.28;5557938;32;34261;-58
2023/06/19 09:44:12;;;;;;;10.68;7.30;;;;;;;25.84;49.65;100480.41;5567050;32;33612;-60
2023/06/19 09:47:20;;;;;;;11.95;7.57;;;;;;;25.83;49.32;100478.03;5553193;32;33875;-60
2023/06/19 09:50:27;;;;;;;9.35;6.37;;;;;;;26.00;47.43;100480.13;5549968;32;33741;-59
2023/06/19 09:53:30;;;;;;;11.43;6.87;;;;;;;26.07;46.39;100477.44;5565068;32;33860;-60
2023/06/19 09:56:34;;;;;;;10.32;6.60;;;;;;;26.15;44.17;100479.03;5566731;32;33631;-60
2023/06/19 09:59:38;;;;;;;8.05;5.80;;;;;;;26.12;43.70;100468.81;5568968;32;33223;-60
2023/06/19 10:02:43;;;;;;;11.47;6.33;;;;;;;26.25;43.44;100464.56;5567985;32;33444;-60
2023/06/19 10:05:46;;;;;;;9.18;6.55;;;;;;;26.24;44.54;100460.25;5567164;32;33776;-60
2023/06/19 10:08:50;;;;;;;11.80;6.43;;;;;;;26.23;44.34;100450.44;5566517;32;34318;-59
2023/06/19 10:11:55;;;;;;;11.10;6.12;;;;;;;26.35;43.58;100445.78;5565572;32;33419;-59
2023/06/19 10:14:57;;;;;;;7.12;5.97;;;;;;;26.42;44.47;100451.31;5567612;32;34201;-59
2023/06/19 10:18:05;;;;;;;7.75;5.85;;;;;;;26.56;42.45;100448.66;5567361;32;33229;-59
2023/06/19 10:21:18;;;;;;;9.52;6.80;;;;;;;26.50;41.68;100452.94;5556934;32;34356;-59
2023/06/19 10:24:24;;;;;;;8.00;6.40;;;;;;;26.51;40.99;100448.22;5566078;32;33074;-60
2023/06/19 10:27:26;;;;;;;10.20;6.97;;;;;;;26.50;42.11;100443.91;5568085;32;33962;-59
2023/06/19 10:30:29;;;;;;;9.05;6.45;;;;;;;26.74;41.85;100431.41;5564179;32;33559;-59
2023/06/19 10:33:39;;;;;;;9.23;6.37;;;;;;;26.70;41.15;100443.19;5566000;32;33615;-59
2023/06/19 10:36:42;;;;;;;7.47;6.65;;;;;;;26.85;42.09;100432.22;5561586;32;33731;-59
2023/06/19 10:39:44;;;;;;;9.38;6.15;;;;;;;26.79;41.94;100431.03;5563276;32;32690;-60
2023/06/19 10:42:47;;;;;;;14.65;6.50;;;;;;;26.76;40.83;100437.34;5568484;32;33607;-57
2023/06/19 10:45:49;;;;;;;10.00;6.35;;;;;;;26.74;41.53;100431.41;5566574;32;33765;-56
2023/06/19 10:48:59;;;;;;;7.40;5.80;;;;;;;26.90;41.98;100435.38;5557317;32;34314;-57
2023/06/19 10:52:01;;;;;;;8.88;6.00;;;;;;;26.83;40.34;100432.63;5554769;32;34463;-57
2023/06/19 10:55:05;;;;;;;7.93;6.15;;;;;;;26.93;40.91;100431.06;5563249;32;33617;-57
2023/06/19 10:58:07;;;;;;;9.38;6.30;;;;;;;26.96;40.62;100435.03;5568573;32;33621;-57
2023/06/19 11:01:10;;;;;;;8.48;6.28;;;;;;;27.03;41.16;100435.03;5560687;32;33785;-57
2023/06/19 11:04:15;;;;;;;13.30;7.28;;;;;;;27.04;39.87;100440.13;5562734;32;33738;-57
2023/06/19 11:07:19;;;;;;;9.48;7.10;;;;;;;26.90;39.69;100438.13;5559838;32;34353;-57
2023/06/19 11:10:23;;;;;;;8.07;6.28;;;;;;;26.86;40.65;100428.31;5561549;32;34301;-57
2023/06/19 11:13:26;;;;;;;;;;;;;;;26.85;39.69;100418.47;5558158;32;33729;-58
2023/06/19 11:16:28;;;;;;;10.65;6.90;;;;;;;26.97;38.77;100429.12;5561033;32;34679;-57
2023/06/19 11:19:33;;;;;;;12.20;6.78;;;;;;;27.00;38.82;100419.28;5568866;32;34448;-58
2023/06/19 11:22:40;;;;;;;8.10;6.47;;;;;;;27.11;39.57;100426.38;5568531;32;34353;-57
2023/06/19 11:25:43;;;;;;;13.32;6.47;;;;;;;27.23;39.11;100421.72;5566758;32;33628;-56
2023/06/19 11:28:48;;;;;;;10.95;6.53;;;;;;;27.16;40.29;100417.00;5563924;32;33475;-57
2023/06/19 11:32:05;;;;;;;12.95;7.28;;;;;;;27.06;39.64;100415.78;5558430;32;32189;-58
2023/06/19 11:35:11;;;;;;;8.90;6.62;;;;;;;27.10;39.96;100415.78;5562486;32;33686;-57
2023/06/19 11:38:25;;;;;;;9.00;7.10;;;;;;;27.10;40.11;100413.03;5560740;32;33696;-56
2023/06/19 11:41:28;;;;;;;9.32;6.62;;;;;;;27.08;38.81;100407.09;5557214;32;34374;-57
2023/06/19 11:44:31;;;;;;;9.00;6.62;;;;;;;27.21;38.08;100404.78;5559682;32;31914;-57
2023/06/19 11:47:34;;;;;;;9.20;6.45;;;;;;;27.12;38.70;100403.19;5561634;32;33794;-57
2023/06/19 11:50:36;;;;;;;9.65;6.30;;;;;;;27.09;39.26;100406.72;5561169;32;34210;-57
2023/06/19 11:53:39;;;;;;;8.80;6.40;;;;;;;27.09;40.00;100394.94;5561059;32;33678;-57
2023/06/19 11:56:41;;;;;;;14.30;7.62;;;;;;;27.26;40.11;100391.44;5564484;32;33744;-57
2023/06/19 11:59:43;;;;;;;8.93;6.78;;;;;;;27.24;39.17;100393.00;5562181;32;33742;-57
2023/06/19 12:02:47;;;;;;;8.70;6.57;;;;;;;27.22;38.05;100389.84;5560508;32;33787;-57
2023/06/19 12:05:50;;;;;;;9.98;6.95;;;;;;;27.22;39.14;100392.59;5561032;31;33730;-57
2023/06/19 12:08:52;;;;;;;10.02;6.50;;;;;;;27.21;38.46;100388.28;5561881;32;33796;-57
2023/06/19 12:11:56;;;;;;;8.20;6.57;;;;;;;27.29;37.80;100392.63;5560013;32;33449;-57
2023/06/19 12:14:58;;;;;;;9.32;6.57;;;;;;;27.28;38.56;100389.06;5559350;32;34331;-57
2023/06/19 12:18:00;;;;;;;8.23;6.68;;;;;;;27.30;39.36;100383.19;5557284;32;33714;-57
2023/06/19 12:21:03;;;;;;;13.23;7.03;;;;;;;27.25;38.71;100384.38;5561626;32;33672;-57
2023/06/19 12:24:06;;;;;;;9.63;7.12;;;;;;;27.05;40.04;100375.69;5561736;32;33238;-57
2023/06/19 12:27:09;;;;;;;10.02;6.75;;;;;;;27.01;39.68;100369.37;5561804;32;33734;-57
2023/06/19 12:30:11;;;;;;;9.52;6.45;;;;;;;27.16;40.42;100368.25;5558956;32;33716;-57
2023/06/19 12:33:14;;;;;;;14.45;7.20;;;;;;;27.39;39.83;100361.53;5563567;32;33726;-57
2023/06/19 12:36:16;;;;;;;8.05;6.82;;;;;;;27.33;39.66;100366.66;5568168;32;33849;-57
2023/06/19 12:39:19;;;;;;;11.88;6.43;;;;;;;27.13;40.54;100369.03;5554015;32;34326;-57
2023/06/19 12:42:21;;;;;;;8.73;7.20;;;;;;;27.14;40.11;100356.03;5565446;32;33306;-57
2023/06/19 12:45:24;;;;;;;10.27;6.85;;;;;;;27.12;40.98;100358.38;5567742;32;33838;-57
2023/06/19 12:48:27;;;;;;;11.25;6.93;;;;;;;27.28;39.81;100352.50;5570048;32;33687;-57
2023/06/19 12:51:30;;;;;;;8.50;7.50;;;;;;;27.35;40.71;100353.28;5568845;31;34393;-57
2023/06/19 12:54:32;;;;;;;15.00;7.12;;;;;;;27.38;38.24;100349.75;5568372;32;33740;-57
2023/06/19 12:57:34;;;;;;;8.55;6.82;;;;;;;27.36;39.13;100341.09;5569308;32;33719;-57
2023/06/19 13:00:37;;;;;;;11.70;6.90;;;;;;;27.46;39.70;100344.22;5570168;32;33600;-58
2023/06/19 13:03:39;;;;;;;10.25;7.10;;;;;;;27.45;39.97;100342.63;5569700;32;33727;-57
2023/06/19 13:06:42;;;;;;;13.88;7.10;;;;;;;27.51;38.78;100341.06;5569589;32;34336;-57
2023/06/19 13:09:44;;;;;;;10.00;7.00;;;;;;;27.47;38.88;100338.31;5569946;32;33707;-58
2023/06/19 13:12:46;;;;;;;7.93;6.90;;;;;;;27.48;39.28;100337.12;5569784;32;33781;-55
2023/06/19 13:15:49;;;;;;;12.05;7.22;;;;;;;27.45;37.97;100343.44;5569619;32;34016;-55
2023/06/19 13:18:51;;;;;;;12.00;7.55;;;;;;;27.43;38.52;100329.28;5569823;32;33496;-55
2023/06/19 13:21:54;;;;;;;11.12;6.90;;;;;;;27.55;39.94;100325.31;5569599;32;34165;-54
2023/06/19 13:24:56;;;;;;;9.68;6.75;;;;;;;27.57;40.13;100323.75;5569467;32;33684;-55
2023/06/19 13:27:58;;;;;;;13.70;6.68;;;;;;;27.63;38.49;100322.16;5569834;32;33491;-54
2023/06/19 13:31:01;;;;;;;8.63;7.15;;;;;;;27.73;38.49;100325.28;5569370;32;34327;-56
2023/06/19 13:34:04;;;;;;;10.93;7.37;;;;;;;27.78;39.21;100320.19;5569425;32;33775;-56
2023/06/19 13:37:06;;;;;;;11.38;7.80;;;;;;;27.87;37.24;100317.00;5568790;32;33911;-55
2023/06/19 13:40:09;;;;;;;12.52;7.35;;;;;;;27.86;37.34;100324.47;5562582;32;34532;-55
2023/06/19 13:43:11;;;;;;;8.60;7.35;;;;;;;27.79;37.61;100315.47;5565276;32;34401;-55
2023/06/19 13:46:13;;;;;;;15.20;7.07;;;;;;;27.85;36.97;100319.38;5564290;32;33219;-54
2023/06/19 13:49:16;;;;;;;13.70;7.50;;;;;;;27.92;37.55;100313.84;5567930;32;34306;-55
2023/06/19 13:52:18;;;;;;;9.27;6.70;;;;;;;27.91;39.23;100319.72;5567293;31;34901;-55
2023/06/19 13:55:21;;;;;;;11.32;7.43;;;;;;;27.88;36.53;100318.53;5569405;32;33724;-55
2023/06/19 13:58:23;;;;;;;9.32;6.80;;;;;;;27.70;36.96;100324.09;5568808;32;33640;-54
2023/06/19 14:01:26;;;;;;;9.25;7.05;;;;;;;27.64;36.96;100320.19;5569493;32;34293;-55
2023/06/19 14:04:29;;;;;;;9.23;7.30;;;;;;;27.46;37.52;100319.47;5569150;32;34317;-56
2023/06/19 14:07:31;;;;;;;9.52;7.00;;;;;;;27.30;37.74;100325.37;5568641;32;34336;-55
2023/06/19 14:10:33;;;;;;;12.37;7.12;;;;;;;27.29;37.92;100329.31;5568473;32;33364;-56
2023/06/19 14:13:35;;;;;;;8.50;7.10;;;;;;;27.27;38.90;100320.66;5568934;32;33859;-56
2023/06/19 14:16:38;;;;;;;10.55;7.20;;;;;;;27.19;38.76;100316.34;5568919;32;33677;-54
2023/06/19 14:19:40;;;;;;;11.45;7.00;;;;;;;27.12;39.77;100320.66;5568499;32;33380;-55
2023/06/19 14:22:43;;;;;;;14.40;7.35;;;;;;;27.14;38.61;100314.78;5568451;32;34320;-56
2023/06/19 14:25:45;;;;;;;11.85;7.60;;;;;;;27.03;39.71;100314.75;5568497;32;33858;-56
2023/06/19 14:28:47;;;;;;;27.50;8.60;;;;;;;26.97;41.01;100310.03;5568823;32;34380;-55
2023/06/19 14:31:53;;;;;;;22.55;8.13;;;;;;;26.92;43.01;100312.00;5567050;32;34249;-55
2023/06/19 14:34:55;;;;;;;33.83;9.20;;;;;;;26.90;43.70;100302.56;5568338;32;34444;-56
2023/06/19 14:37:57;;;;;;;21.52;7.50;;;;;;;26.97;42.17;100313.56;5568086;32;33979;-56
2023/06/19 14:41:01;;;;;;;8.70;7.22;;;;;;;27.03;41.59;100314.75;5568601;32;34825;-55
2023/06/19 14:44:05;;;;;;;10.35;7.32;;;;;;;27.09;41.64;100317.91;5566806;32;34431;-56
2023/06/19 14:47:08;;;;;;;8.90;7.53;;;;;;;27.08;40.03;100313.56;5567756;32;34306;-56
2023/06/19 14:50:10;;;;;;;12.50;7.18;;;;;;;27.22;39.25;100316.34;5568365;32;33862;-56
2023/06/19 14:53:13;;;;;;;26.12;9.02;;;;;;;27.29;40.03;100307.31;5568684;31;34382;-55
2023/06/19 14:56:15;;;;;;;9.98;7.15;;;;;;;27.35;40.19;100308.44;5568372;32;33755;-56
2023/06/19 14:59:19;;;;;;;30.67;8.13;;;;;;;27.31;38.42;100302.94;5568619;32;33617;-56
2023/06/19 15:02:21;;;;;;;13.52;7.45;;;;;;;27.12;41.29;100303.38;5567170;32;34397;-56
2023/06/19 15:05:23;;;;;;;12.13;7.65;;;;;;;27.00;41.36;100307.28;5568362;32;33726;-55
